createdAt,value
2017-11-22T00:01:40.536Z,4.90
2017-11-22T00:04:06.960Z,4.90
2017-11-22T00:06:33.337Z,4.80
2017-11-22T00:08:59.725Z,4.80
2017-11-22T00:11:26.149Z,4.90
2017-11-22T00:13:52.556Z,5.00
2017-11-22T00:16:18.952Z,5.00
2017-11-22T00:18:46.116Z,5.10
2017-11-22T00:21:12.528Z,5.10
2017-11-22T00:23:39.662Z,5.20
2017-11-22T00:26:06.093Z,5.10
2017-11-22T00:28:39.440Z,5.10
2017-11-22T00:31:05.855Z,5.20
2017-11-22T00:33:32.284Z,5.20
2017-11-22T00:35:59.420Z,5.10
2017-11-22T00:38:26.689Z,5.10
2017-11-22T00:40:53.830Z,5.20
2017-11-22T00:43:20.978Z,5.20
2017-11-22T00:45:48.133Z,5.10
2017-11-22T00:48:15.285Z,5.20
2017-11-22T00:50:42.471Z,5.20
2017-11-22T00:53:08.872Z,5.20
2017-11-22T00:55:36.066Z,5.30
2017-11-22T00:58:02.471Z,5.30
2017-11-22T01:00:28.885Z,5.30
2017-11-22T01:02:56.055Z,5.30
2017-11-22T01:05:22.444Z,5.20
2017-11-22T01:07:48.833Z,5.30
2017-11-22T01:10:15.283Z,5.30
2017-11-22T01:12:41.679Z,5.30
2017-11-22T01:15:08.114Z,5.40
2017-11-22T01:17:34.492Z,5.50
2017-11-22T01:20:00.883Z,5.50
2017-11-22T01:22:27.323Z,5.50
2017-11-22T01:24:53.744Z,5.40
2017-11-22T01:27:20.161Z,5.40
2017-11-22T01:29:47.301Z,5.30
2017-11-22T01:32:14.453Z,5.40
2017-11-22T01:34:41.668Z,5.50
2017-11-22T01:37:08.908Z,5.50
2017-11-22T01:39:35.363Z,5.50
2017-11-22T01:42:01.804Z,5.60
2017-11-22T01:44:28.217Z,5.50
2017-11-22T01:46:54.680Z,5.50
2017-11-22T01:49:21.224Z,5.50
2017-11-22T01:51:48.360Z,5.40
2017-11-22T01:54:14.776Z,5.40
2017-11-22T01:56:41.256Z,5.50
2017-11-22T01:59:07.652Z,5.60
2017-11-22T02:01:34.129Z,5.50
2017-11-22T02:04:00.557Z,5.50
2017-11-22T02:06:26.985Z,5.50
2017-11-22T02:08:53.380Z,5.50
2017-11-22T02:11:19.792Z,5.60
2017-11-22T02:13:46.212Z,5.60
2017-11-22T02:16:12.618Z,5.50
2017-11-22T02:18:39.032Z,5.50
2017-11-22T02:21:06.185Z,5.50
2017-11-22T02:23:33.340Z,5.50
2017-11-22T02:26:00.519Z,5.50
2017-11-22T02:28:26.987Z,5.50
2017-11-22T02:30:53.478Z,5.40
2017-11-22T02:33:19.900Z,5.40
2017-11-22T02:35:46.346Z,5.40
2017-11-22T02:38:12.802Z,5.50
2017-11-22T02:40:39.251Z,5.40
2017-11-22T02:43:05.666Z,5.40
2017-11-22T02:45:32.099Z,5.40
2017-11-22T02:47:58.569Z,5.40
2017-11-22T02:50:25.010Z,5.30
2017-11-22T02:52:51.433Z,5.40
2017-11-22T02:55:17.901Z,5.40
2017-11-22T02:57:44.336Z,5.30
2017-11-22T03:00:10.780Z,5.30
2017-11-22T03:02:37.179Z,5.30
2017-11-22T03:05:04.382Z,5.40
2017-11-22T03:07:30.788Z,5.40
2017-11-22T03:09:57.209Z,5.50
2017-11-22T03:12:24.349Z,5.50
2017-11-22T03:14:50.823Z,5.50
2017-11-22T03:17:17.206Z,5.50
2017-11-22T03:19:44.391Z,5.40
2017-11-22T03:22:10.792Z,5.40
2017-11-22T03:24:38.287Z,5.50
2017-11-22T03:27:04.724Z,5.40
2017-11-22T03:29:31.980Z,5.50
2017-11-22T03:31:58.488Z,5.50
2017-11-22T03:34:24.953Z,5.40
2017-11-22T03:36:51.483Z,5.30
2017-11-22T03:39:17.913Z,5.30
2017-11-22T03:41:44.395Z,5.40
2017-11-22T03:44:10.845Z,5.40
2017-11-22T03:46:37.989Z,5.40
2017-11-22T03:49:04.991Z,5.40
2017-11-22T03:51:37.505Z,5.30
2017-11-22T03:54:04.740Z,5.40
2017-11-22T03:56:31.190Z,5.40
2017-11-22T03:58:57.644Z,5.30
2017-11-22T04:01:24.814Z,5.30
2017-11-22T04:03:51.236Z,5.30
2017-11-22T04:06:17.622Z,5.40
2017-11-22T04:08:44.036Z,5.40
2017-11-22T04:11:10.440Z,5.40
2017-11-22T04:13:36.826Z,5.40
2017-11-22T04:16:03.262Z,5.30
2017-11-22T04:18:29.687Z,5.50
2017-11-22T04:20:56.088Z,5.50
2017-11-22T04:23:22.525Z,5.40
2017-11-22T04:25:48.912Z,5.40
2017-11-22T04:28:16.077Z,5.50
2017-11-22T04:30:42.472Z,5.40
2017-11-22T04:33:08.923Z,5.50
2017-11-22T04:35:35.361Z,5.50
2017-11-22T04:38:02.542Z,5.40
2017-11-22T04:40:28.945Z,5.40
2017-11-22T04:42:56.161Z,5.40
2017-11-22T04:45:22.592Z,5.40
2017-11-22T04:47:49.125Z,5.40
2017-11-22T04:50:15.618Z,5.40
2017-11-22T04:52:42.753Z,5.40
2017-11-22T04:55:09.932Z,5.40
2017-11-22T04:57:36.370Z,5.40
2017-11-22T05:00:02.831Z,5.40
2017-11-22T05:02:29.271Z,5.40
2017-11-22T05:04:55.688Z,5.40
2017-11-22T05:07:22.104Z,5.40
2017-11-22T05:09:48.532Z,5.40
2017-11-22T05:12:14.957Z,5.40
2017-11-22T05:14:41.359Z,5.30
2017-11-22T05:17:08.516Z,5.40
2017-11-22T05:19:35.708Z,5.40
2017-11-22T05:22:02.127Z,5.40
2017-11-22T05:24:28.517Z,5.40
2017-11-22T05:26:54.904Z,5.40
2017-11-22T05:29:21.327Z,5.40
2017-11-22T05:31:47.796Z,5.30
2017-11-22T05:34:14.209Z,5.30
2017-11-22T05:36:40.621Z,5.30
2017-11-22T05:39:07.095Z,5.30
2017-11-22T05:41:33.531Z,5.30
2017-11-22T05:43:59.991Z,5.30
2017-11-22T05:46:27.201Z,5.40
2017-11-22T05:48:54.457Z,5.40
2017-11-22T05:51:20.858Z,5.40
2017-11-22T05:53:47.300Z,5.30
2017-11-22T05:56:13.816Z,5.30
2017-11-22T05:58:40.243Z,5.30
2017-11-22T06:01:06.709Z,5.20
2017-11-22T06:03:33.202Z,5.20
2017-11-22T06:06:00.336Z,5.30
2017-11-22T06:08:27.512Z,5.30
2017-11-22T06:10:54.644Z,5.20
2017-11-22T06:13:21.816Z,5.30
2017-11-22T06:15:48.243Z,5.30
2017-11-22T06:18:14.672Z,5.30
2017-11-22T06:20:41.305Z,5.40
2017-11-22T06:23:07.777Z,5.30
2017-11-22T06:25:34.170Z,5.30
2017-11-22T06:28:00.608Z,5.30
2017-11-22T06:30:30.732Z,5.30
2017-11-22T06:32:57.175Z,5.30
2017-11-22T06:35:23.606Z,5.30
2017-11-22T06:37:49.992Z,5.20
2017-11-22T06:40:16.466Z,5.20
2017-11-22T06:42:43.625Z,5.20
2017-11-22T06:45:10.068Z,5.20
2017-11-22T06:47:36.532Z,5.30
2017-11-22T06:50:02.996Z,5.40
2017-11-22T06:52:29.421Z,5.40
2017-11-22T06:54:55.819Z,5.50
2017-11-22T06:57:22.244Z,5.50
2017-11-22T06:59:48.629Z,5.50
2017-11-22T07:02:18.806Z,5.60
2017-11-22T07:04:45.252Z,5.60
2017-11-22T07:07:11.681Z,5.60
2017-11-22T07:09:38.109Z,5.70
2017-11-22T07:12:04.513Z,5.70
2017-11-22T07:14:30.956Z,5.70
2017-11-22T07:17:03.499Z,5.70
2017-11-22T07:19:30.680Z,5.80
2017-11-22T07:21:57.072Z,5.80
2017-11-22T07:24:24.257Z,5.90
2017-11-22T07:26:50.641Z,5.90
2017-11-22T07:29:17.058Z,5.90
2017-11-22T07:31:43.449Z,5.90
2017-11-22T07:34:09.902Z,6.00
2017-11-22T07:36:42.445Z,6.10
2017-11-22T07:39:09.569Z,6.20
2017-11-22T07:41:36.008Z,6.20
2017-11-22T07:44:02.425Z,6.30
2017-11-22T07:46:28.850Z,6.30
2017-11-22T07:48:55.257Z,6.50
2017-11-22T07:51:27.820Z,6.60
2017-11-22T07:53:54.240Z,6.60
2017-11-22T07:56:20.672Z,6.60
2017-11-22T07:58:47.069Z,6.70
2017-11-22T08:01:13.513Z,6.70
2017-11-22T08:03:41.709Z,6.60
2017-11-22T08:06:08.133Z,6.60
2017-11-22T08:08:35.333Z,6.80
2017-11-22T08:11:01.731Z,6.80
2017-11-22T08:13:28.152Z,7.00
2017-11-22T08:15:54.570Z,6.90
2017-11-22T08:18:21.716Z,7.00
2017-11-22T08:20:49.760Z,7.20
2017-11-22T08:23:16.194Z,7.10
2017-11-22T08:25:42.597Z,7.30
2017-11-22T08:28:09.025Z,7.30
2017-11-22T08:30:37.292Z,7.40
2017-11-22T08:33:03.857Z,7.50
2017-11-22T08:35:30.273Z,7.60
2017-11-22T08:37:56.712Z,7.60
2017-11-22T08:40:23.123Z,7.70
2017-11-22T08:42:55.719Z,7.80
2017-11-22T08:45:22.245Z,7.80
2017-11-22T08:47:48.657Z,7.70
2017-11-22T08:50:15.797Z,7.70
2017-11-22T08:52:42.976Z,7.70
2017-11-22T08:55:15.456Z,7.70
2017-11-22T08:57:47.795Z,7.70
2017-11-22T09:00:17.953Z,7.90
2017-11-22T09:02:44.368Z,7.80
2017-11-22T09:05:17.716Z,7.90
2017-11-22T09:07:44.232Z,8.00
2017-11-22T09:10:10.637Z,8.20
2017-11-22T09:12:43.039Z,8.30
2017-11-22T09:15:09.474Z,8.50
2017-11-22T09:17:36.028Z,8.60
2017-11-22T09:20:05.429Z,8.60
2017-11-22T09:22:32.592Z,8.80
2017-11-22T09:25:02.889Z,8.70
2017-11-22T09:27:35.228Z,8.70
2017-11-22T09:30:01.645Z,8.70
2017-11-22T09:32:32.034Z,8.80
2017-11-22T09:35:04.493Z,8.90
2017-11-22T09:37:30.919Z,9.10
2017-11-22T09:39:57.341Z,9.10
2017-11-22T09:42:23.815Z,9.10
2017-11-22T09:44:50.224Z,9.10
2017-11-22T09:47:16.620Z,9.20
2017-11-22T09:49:43.038Z,9.20
2017-11-22T09:52:10.201Z,9.30
2017-11-22T09:54:36.641Z,9.30
2017-11-22T09:57:03.080Z,9.30
2017-11-22T09:59:29.508Z,9.20
2017-11-22T10:01:55.938Z,9.40
2017-11-22T10:04:22.330Z,9.50
2017-11-22T10:06:48.751Z,9.70
2017-11-22T10:09:15.161Z,9.80
2017-11-22T10:11:41.574Z,9.90
2017-11-22T10:14:08.026Z,10.00
2017-11-22T10:16:34.440Z,10.10
2017-11-22T10:19:00.836Z,10.40
2017-11-22T10:21:28.034Z,10.50
2017-11-22T10:23:54.500Z,10.50
2017-11-22T10:26:26.937Z,10.40
2017-11-22T10:28:53.385Z,10.50
2017-11-22T10:31:25.644Z,10.60
2017-11-22T10:33:52.104Z,10.70
2017-11-22T10:36:18.564Z,11.00
2017-11-22T10:38:44.996Z,11.20
2017-11-22T10:41:11.456Z,11.30
2017-11-22T10:43:37.910Z,11.40
2017-11-22T10:46:04.344Z,11.50
2017-11-22T10:48:30.768Z,11.80
2017-11-22T10:50:57.225Z,11.90
2017-11-22T10:53:23.664Z,11.80
2017-11-22T10:55:50.109Z,11.80
2017-11-22T10:58:23.563Z,12.10
2017-11-22T11:00:50.078Z,11.90
2017-11-22T11:03:17.345Z,11.70
2017-11-22T11:05:43.799Z,11.60
2017-11-22T11:08:10.235Z,11.80
2017-11-22T11:10:36.677Z,11.90
2017-11-22T11:13:03.109Z,12.10
2017-11-22T11:15:29.569Z,12.10
2017-11-22T11:17:55.993Z,12.10
2017-11-22T11:20:22.398Z,12.20
2017-11-22T11:22:48.831Z,12.20
2017-11-22T11:25:15.233Z,12.30
2017-11-22T11:27:42.381Z,12.40
2017-11-22T11:30:09.577Z,12.40
2017-11-22T11:32:35.997Z,12.40
2017-11-22T11:35:02.437Z,12.60
2017-11-22T11:37:28.913Z,12.60
2017-11-22T11:39:56.100Z,12.70
2017-11-22T11:42:22.549Z,12.70
2017-11-22T11:44:48.954Z,12.60
2017-11-22T11:47:15.424Z,12.60
2017-11-22T11:49:42.649Z,12.60
2017-11-22T11:52:09.098Z,12.60
2017-11-22T11:54:35.508Z,12.70
2017-11-22T11:57:01.897Z,12.90
2017-11-22T11:59:28.334Z,13.10
2017-11-22T12:01:54.738Z,13.70
2017-11-22T12:04:21.174Z,14.40
2017-11-22T12:06:47.564Z,15.10
2017-11-22T12:09:14.731Z,15.70
2017-11-22T12:11:41.114Z,15.70
2017-11-22T12:14:07.509Z,16.00
2017-11-22T12:16:33.920Z,16.90
2017-11-22T12:19:00.322Z,17.80
2017-11-22T12:21:26.763Z,19.30
2017-11-22T12:23:53.917Z,19.50
2017-11-22T12:26:21.053Z,19.00
2017-11-22T12:28:47.465Z,19.00
2017-11-22T12:31:13.884Z,18.50
2017-11-22T12:33:40.313Z,17.80
2017-11-22T12:36:06.719Z,18.00
2017-11-22T12:38:33.133Z,18.00
2017-11-22T12:41:00.292Z,18.30
2017-11-22T12:43:28.317Z,18.40
2017-11-22T12:45:54.709Z,18.40
2017-11-22T12:48:21.096Z,18.90
2017-11-22T12:50:47.534Z,19.50
2017-11-22T12:53:13.959Z,20.30
2017-11-22T12:55:40.396Z,20.60
2017-11-22T12:58:06.810Z,21.30
2017-11-22T13:00:33.288Z,20.70
2017-11-22T13:03:00.451Z,20.10
2017-11-22T13:05:26.881Z,20.10
2017-11-22T13:07:53.300Z,19.80
2017-11-22T13:10:26.555Z,19.20
2017-11-22T13:12:53.001Z,19.20
2017-11-22T13:15:19.442Z,19.00
2017-11-22T13:17:45.884Z,18.70
2017-11-22T13:20:12.337Z,18.50
2017-11-22T13:22:38.754Z,19.00
2017-11-22T13:25:05.956Z,19.50
2017-11-22T13:27:32.391Z,19.50
2017-11-22T13:29:58.812Z,19.40
2017-11-22T13:32:26.025Z,19.00
2017-11-22T13:34:53.160Z,17.50
2017-11-22T13:37:19.631Z,17.50
2017-11-22T13:39:46.099Z,17.00
2017-11-22T13:42:12.561Z,16.30
2017-11-22T13:44:39.772Z,15.40
2017-11-22T13:47:06.241Z,15.40
2017-11-22T13:49:32.687Z,15.00
2017-11-22T13:51:59.882Z,14.60
2017-11-22T13:54:26.346Z,14.60
2017-11-22T13:56:52.772Z,14.30
2017-11-22T13:59:19.381Z,14.20
2017-11-22T14:01:45.821Z,14.20
2017-11-22T14:04:12.273Z,14.10
2017-11-22T14:06:38.703Z,14.00
2017-11-22T14:09:05.150Z,13.90
2017-11-22T14:11:31.588Z,13.70
2017-11-22T14:13:58.019Z,13.60
2017-11-22T14:16:24.476Z,13.50
2017-11-22T14:18:51.682Z,13.20
2017-11-22T14:21:18.141Z,13.20
2017-11-22T14:23:44.604Z,13.00
2017-11-22T14:26:11.791Z,12.60
2017-11-22T14:28:38.237Z,12.60
2017-11-22T14:31:04.709Z,12.40
2017-11-22T14:33:31.196Z,12.20
2017-11-22T14:35:57.677Z,12.00
2017-11-22T14:38:24.860Z,11.80
2017-11-22T14:40:51.309Z,11.70
2017-11-22T14:43:17.780Z,11.60
2017-11-22T14:45:44.244Z,11.50
2017-11-22T14:48:11.431Z,11.30
2017-11-22T14:50:37.845Z,11.20
2017-11-22T14:53:04.328Z,11.20
2017-11-22T14:55:30.757Z,11.10
2017-11-22T14:57:57.225Z,11.00
2017-11-22T15:00:24.420Z,10.80
2017-11-22T15:02:50.913Z,10.80
2017-11-22T15:05:18.125Z,10.50
2017-11-22T15:07:44.596Z,10.50
2017-11-22T15:10:11.123Z,10.30
2017-11-22T15:12:38.301Z,10.00
2017-11-22T15:15:04.958Z,10.00
2017-11-22T15:17:39.454Z,9.70
2017-11-22T15:20:05.957Z,9.70
2017-11-22T15:22:32.467Z,9.60
2017-11-22T15:24:59.797Z,9.30
2017-11-22T15:27:26.586Z,9.30
2017-11-22T15:29:53.115Z,9.20
2017-11-22T15:32:19.939Z,9.10
2017-11-22T15:34:47.133Z,8.80
2017-11-22T15:37:14.391Z,8.70
2017-11-22T15:39:41.588Z,8.60
2017-11-22T15:42:08.081Z,8.60
2017-11-22T15:44:34.496Z,8.50
2017-11-22T15:47:00.888Z,8.40
2017-11-22T15:49:27.377Z,8.30
2017-11-22T15:51:53.836Z,8.10
2017-11-22T15:54:20.309Z,8.00
2017-11-22T15:56:46.815Z,8.10
2017-11-22T15:59:13.295Z,8.10
2017-11-22T16:01:40.472Z,7.90
2017-11-22T16:04:06.901Z,7.90
2017-11-22T16:06:33.322Z,7.80
2017-11-22T16:09:00.472Z,7.80
2017-11-22T16:11:27.654Z,7.70
2017-11-22T16:13:54.119Z,7.70
2017-11-22T16:16:20.533Z,7.70
2017-11-22T16:18:46.970Z,7.50
2017-11-22T16:21:13.396Z,7.50
2017-11-22T16:23:39.856Z,7.40
2017-11-22T16:26:06.308Z,7.40
2017-11-22T16:28:32.733Z,7.30
2017-11-22T16:30:59.175Z,7.20
2017-11-22T16:33:26.348Z,7.20
2017-11-22T16:35:52.806Z,7.10
2017-11-22T16:38:19.230Z,7.10
2017-11-22T16:40:45.679Z,7.00
2017-11-22T16:43:12.140Z,6.90
2017-11-22T16:45:38.608Z,6.90
2017-11-22T16:48:05.812Z,6.80
2017-11-22T16:50:32.302Z,6.80
2017-11-22T16:52:58.841Z,6.80
2017-11-22T16:55:25.455Z,6.70
2017-11-22T16:57:51.960Z,6.60
2017-11-22T17:02:11.953Z,6.50
2017-11-22T17:04:38.445Z,6.50
2017-11-22T17:07:04.920Z,6.40
2017-11-22T17:09:31.444Z,6.30
2017-11-22T17:11:57.911Z,6.30
2017-11-22T17:14:24.385Z,6.30
2017-11-22T17:16:51.006Z,6.30
2017-11-22T17:19:17.594Z,6.30
2017-11-22T17:22:19.982Z,6.20
2017-11-22T17:24:47.425Z,6.20
2017-11-22T17:27:13.845Z,6.20
2017-11-22T17:29:40.296Z,6.20
2017-11-22T17:32:06.703Z,6.10
2017-11-22T17:34:33.381Z,6.10
2017-11-22T17:37:00.613Z,6.00
2017-11-22T17:39:27.831Z,5.90
2017-11-22T17:41:54.326Z,5.90
2017-11-22T17:44:21.565Z,5.80
2017-11-22T17:46:48.005Z,5.80
2017-11-22T17:49:14.480Z,5.80
2017-11-22T17:51:40.942Z,5.80
2017-11-22T17:54:07.412Z,5.80
2017-11-22T17:56:33.885Z,5.80
2017-11-22T17:59:00.336Z,5.70
2017-11-22T18:01:26.747Z,5.70
2017-11-22T18:03:53.216Z,5.70
2017-11-22T18:06:19.648Z,5.70
2017-11-22T18:08:46.079Z,5.70
2017-11-22T18:11:12.688Z,5.70
2017-11-22T18:13:39.140Z,5.70
2017-11-22T18:16:05.528Z,5.60
2017-11-22T18:18:32.710Z,5.60
2017-11-22T18:20:59.158Z,5.60
2017-11-22T18:23:25.679Z,5.60
2017-11-22T18:25:52.104Z,5.50
2017-11-22T18:28:18.525Z,5.50
2017-11-22T18:30:45.704Z,5.30
2017-11-22T18:33:12.141Z,5.30
2017-11-22T18:35:38.605Z,5.20
2017-11-22T18:38:05.050Z,5.20
2017-11-22T18:40:31.493Z,5.20
2017-11-22T18:42:58.668Z,5.20
2017-11-22T18:45:25.856Z,5.30
2017-11-22T18:47:52.324Z,5.20
2017-11-22T18:50:18.757Z,5.20
2017-11-22T18:52:45.225Z,5.20
2017-11-22T18:55:11.650Z,5.20
2017-11-22T18:57:38.136Z,5.10
2017-11-22T19:00:04.584Z,5.10
2017-11-22T19:02:31.012Z,5.10
2017-11-22T19:04:57.392Z,5.00
2017-11-22T19:07:23.824Z,5.00
2017-11-22T19:09:50.236Z,5.00
2017-11-22T19:12:17.409Z,4.90
2017-11-22T19:14:43.815Z,4.80
2017-11-22T19:17:10.248Z,4.80
2017-11-22T19:19:36.656Z,4.80
2017-11-22T19:22:03.069Z,4.70
2017-11-22T19:24:29.512Z,4.70
2017-11-22T19:26:55.929Z,4.60
2017-11-22T19:29:25.418Z,4.60
2017-11-22T19:33:36.369Z,4.60
2017-11-22T19:36:02.832Z,4.60
2017-11-22T19:38:29.633Z,4.60
2017-11-22T19:41:02.196Z,4.50
2017-11-22T19:43:34.949Z,4.50
2017-11-22T19:46:01.644Z,4.40
2017-11-22T19:48:28.264Z,4.40
2017-11-22T19:50:54.737Z,4.50
2017-11-22T19:53:21.261Z,4.50
2017-11-22T19:55:47.829Z,4.40
2017-11-22T19:58:14.320Z,4.40
2017-11-22T20:00:40.797Z,4.30
2017-11-22T20:03:07.332Z,4.30
2017-11-22T20:05:33.831Z,4.30
2017-11-22T20:08:12.566Z,4.30
2017-11-22T20:10:39.103Z,4.30
2017-11-22T20:13:05.675Z,4.30
2017-11-22T20:15:32.104Z,4.30
2017-11-22T20:17:58.598Z,4.30
2017-11-22T20:20:25.160Z,4.30
2017-11-22T20:22:51.699Z,4.20
2017-11-22T20:25:18.284Z,4.30
2017-11-22T20:27:44.748Z,4.30
2017-11-22T20:30:11.669Z,4.30
2017-11-22T20:32:38.430Z,4.30
2017-11-22T20:35:05.920Z,4.20
2017-11-22T20:37:32.573Z,4.20
2017-11-22T20:39:59.168Z,4.20
2017-11-22T20:42:25.770Z,4.10
2017-11-22T20:44:52.287Z,4.10
2017-11-22T20:47:19.481Z,4.10
2017-11-22T20:49:45.949Z,4.10
2017-11-22T20:52:12.529Z,4.00
2017-11-22T20:54:39.174Z,4.00
2017-11-22T20:57:05.702Z,3.90
2017-11-22T20:59:32.161Z,3.90
2017-11-22T21:01:58.606Z,3.80
2017-11-22T21:04:25.249Z,3.80
2017-11-22T21:06:52.641Z,3.80
2017-11-22T21:09:19.975Z,3.80
2017-11-22T21:11:46.584Z,3.80
2017-11-22T21:14:13.312Z,3.80
2017-11-22T21:16:39.777Z,3.80
2017-11-22T21:21:31.972Z,3.80
2017-11-22T21:23:58.533Z,3.90
2017-11-22T21:26:24.985Z,3.80
2017-11-22T21:28:51.394Z,3.80
2017-11-22T21:31:18.542Z,3.80
2017-11-22T21:33:45.716Z,3.80
2017-11-22T21:36:12.112Z,3.80
2017-11-22T21:38:39.894Z,3.70
2017-11-22T21:41:06.422Z,3.70
2017-11-22T21:43:33.577Z,3.60
2017-11-22T21:46:01.130Z,3.60
2017-11-22T21:48:27.609Z,3.60
2017-11-22T21:50:54.133Z,3.60
2017-11-22T21:53:20.536Z,3.70
2017-11-22T21:55:47.837Z,3.60
2017-11-22T21:58:14.286Z,3.60
2017-11-22T22:00:40.689Z,3.70
2017-11-22T22:03:07.155Z,3.60
2017-11-22T22:05:33.584Z,3.60
2017-11-22T22:08:00.011Z,3.60
2017-11-22T22:10:26.442Z,3.60
2017-11-22T22:12:52.834Z,3.70
2017-11-22T22:15:19.273Z,3.70
2017-11-22T22:17:45.660Z,3.70
2017-11-22T22:20:12.080Z,3.80
2017-11-22T22:22:39.291Z,3.80
2017-11-22T22:25:05.725Z,3.70
2017-11-22T22:27:32.160Z,3.70
2017-11-22T22:29:58.576Z,3.70
2017-11-22T22:32:25.732Z,3.70
2017-11-22T22:34:52.157Z,3.70
2017-11-22T22:37:19.300Z,3.70
2017-11-22T22:39:46.474Z,3.70
2017-11-22T22:42:12.858Z,3.70
2017-11-22T22:44:39.272Z,3.70
2017-11-22T22:47:05.700Z,3.60
2017-11-22T22:49:32.120Z,3.70
2017-11-22T22:51:58.536Z,3.70
2017-11-22T22:54:24.976Z,3.70
2017-11-22T22:56:51.365Z,3.60
2017-11-22T22:59:17.782Z,3.60
2017-11-22T23:01:44.204Z,3.60
2017-11-22T23:04:10.622Z,3.50
2017-11-22T23:06:37.137Z,3.50
2017-11-22T23:09:03.582Z,3.50
2017-11-22T23:11:30.010Z,3.40
2017-11-22T23:13:56.448Z,3.30
2017-11-22T23:16:22.841Z,3.30
2017-11-22T23:18:50.013Z,3.10
2017-11-22T23:21:16.429Z,3.10
2017-11-22T23:23:43.622Z,3.00
2017-11-22T23:26:10.020Z,3.00
2017-11-22T23:28:36.482Z,3.00
2017-11-22T23:31:02.869Z,2.90
2017-11-22T23:33:29.992Z,2.90
2017-11-22T23:35:56.404Z,2.90
2017-11-22T23:38:22.845Z,2.90
2017-11-22T23:40:49.250Z,2.90
2017-11-22T23:43:15.644Z,2.90
2017-11-22T23:45:42.038Z,2.90
2017-11-22T23:48:08.476Z,2.90
2017-11-22T23:50:34.922Z,2.80
2017-11-22T23:53:01.356Z,2.80
2017-11-22T23:55:27.748Z,2.80
2017-11-22T23:57:54.169Z,2.80
